Аэропорт: Чертовицкое. Воронеж

ICAO: UUOO

METAR:
2018/07/16 20:00
UUOO 162000Z 10002MPS CAVOK 21/18 Q1003 R12/090070 NOSIG RMK QFE738
METAR:
2016/06/11 16:06
TAF COR TAF 
      AMD UUOO 111501Z 1116/1224 23005MPS 9999 -SHRA BKN030CB 
      TEMPO 1116/1121 3000 -TSRA SCT007 BKN020CB